createdAt,value
2022-11-13T00:03:09.950Z,46.50
2022-11-13T00:05:42.134Z,46.70
2022-11-13T00:08:15.635Z,45.20
2022-11-13T00:10:48.632Z,43.70
2022-11-13T00:13:29.027Z,46.60
2022-11-13T00:16:04.689Z,43.10
2022-11-13T00:18:39.009Z,43.10
2022-11-13T00:21:13.995Z,43.90
2022-11-13T00:23:47.139Z,43.30
2022-11-13T00:26:21.960Z,42.20
2022-11-13T00:28:58.368Z,43.50
2022-11-13T00:31:31.212Z,42.70
2022-11-13T00:36:58.906Z,39.10
2022-11-13T00:39:32.349Z,41.50
2022-11-13T00:42:05.648Z,40.60
2022-11-13T00:44:38.429Z,42.90
2022-11-13T00:47:11.692Z,42.80
2022-11-13T00:49:44.775Z,40.60
2022-11-13T00:52:17.990Z,39.90
2022-11-13T00:54:50.454Z,38.70
2022-11-13T00:57:23.796Z,41.00
2022-11-13T00:59:58.830Z,39.80
2022-11-13T01:02:32.045Z,39.20
2022-11-13T01:05:06.638Z,40.50
2022-11-13T01:14:40.676Z,39.00
2022-11-13T01:17:13.143Z,37.00
2022-11-13T01:19:45.435Z,39.20
2022-11-13T01:22:17.627Z,40.10
2022-11-13T01:24:49.854Z,40.60
2022-11-13T01:27:22.040Z,40.70
2022-11-13T01:29:54.421Z,42.70
2022-11-13T01:32:26.598Z,43.40
2022-11-13T01:34:58.822Z,43.00
2022-11-13T01:37:31.155Z,42.00
2022-11-13T01:40:03.304Z,40.60
2022-11-13T01:42:36.859Z,40.30
2022-11-13T01:45:39.669Z,43.30
2022-11-13T01:48:14.819Z,43.70
2022-11-13T01:50:47.027Z,40.70
2022-11-13T01:53:19.398Z,38.50
2022-11-13T01:55:51.610Z,40.40
2022-11-13T01:58:23.933Z,40.30
2022-11-13T02:00:56.205Z,42.00
2022-11-13T02:03:28.391Z,40.80
2022-11-13T02:06:00.684Z,42.40
2022-11-13T02:08:32.980Z,41.70
2022-11-13T02:11:05.188Z,40.20
2022-11-13T02:13:39.010Z,42.60
2022-11-13T02:16:13.363Z,42.30
2022-11-13T02:18:45.834Z,42.10
2022-11-13T02:21:26.983Z,41.30
2022-11-13T02:24:05.112Z,37.80
2022-11-13T02:26:38.082Z,38.80
2022-11-13T02:29:10.351Z,39.00
2022-11-13T02:31:42.568Z,41.60
2022-11-13T02:34:14.799Z,40.80
2022-11-13T02:36:47.111Z,38.50
2022-11-13T02:39:19.298Z,40.10
2022-11-13T02:41:51.467Z,40.10
2022-11-13T02:44:23.657Z,39.80
2022-11-13T02:46:55.956Z,40.30
2022-11-13T02:49:28.173Z,37.90
2022-11-13T02:52:00.353Z,39.10
2022-11-13T02:54:32.574Z,37.10
2022-11-13T02:57:04.904Z,36.90
2022-11-13T02:59:37.077Z,37.00
2022-11-13T03:02:09.341Z,37.00
2022-11-13T03:05:10.304Z,33.50
2022-11-13T03:07:33.732Z,36.00
2022-11-13T03:10:07.146Z,35.40
2022-11-13T03:12:40.742Z,34.10
2022-11-13T03:15:13.800Z,34.10
2022-11-13T03:17:46.058Z,33.30
2022-11-13T03:20:18.547Z,33.00
2022-11-13T03:22:50.759Z,31.40
2022-11-13T03:25:22.955Z,32.40
2022-11-13T03:27:55.083Z,32.10
2022-11-13T03:30:27.419Z,33.70
2022-11-13T03:32:59.836Z,33.10
2022-11-13T03:35:38.077Z,33.00
2022-11-13T03:38:14.084Z,33.20
2022-11-13T03:40:46.403Z,32.50
2022-11-13T03:43:18.631Z,31.80
2022-11-13T03:45:50.919Z,31.70
2022-11-13T03:48:23.059Z,31.90
2022-11-13T03:50:57.170Z,33.20
2022-11-13T03:53:29.285Z,33.10
2022-11-13T03:56:01.462Z,33.30
2022-11-13T03:58:35.401Z,33.20
2022-11-13T04:01:10.835Z,30.90
2022-11-13T04:03:43.051Z,32.10
2022-11-13T04:06:15.784Z,30.90
2022-11-13T04:08:48.344Z,31.00
2022-11-13T04:11:20.583Z,30.40
2022-11-13T04:13:52.712Z,31.20
2022-11-13T04:16:24.992Z,32.00
2022-11-13T04:18:57.344Z,31.30
2022-11-13T04:21:29.571Z,30.70
2022-11-13T04:24:01.843Z,31.10
2022-11-13T04:26:34.067Z,29.80
2022-11-13T04:29:06.286Z,29.30
2022-11-13T04:31:38.515Z,28.30
2022-11-13T04:34:11.380Z,28.40
2022-11-13T04:36:43.574Z,29.40
2022-11-13T04:39:15.747Z,29.60
2022-11-13T04:42:05.392Z,29.50
2022-11-13T04:44:37.647Z,27.90
2022-11-13T04:47:09.864Z,27.60
2022-11-13T04:49:42.200Z,28.50
2022-11-13T04:52:14.424Z,30.30
2022-11-13T04:54:46.556Z,28.60
2022-11-13T04:57:18.725Z,28.50
2022-11-13T04:59:51.015Z,28.30
2022-11-13T05:02:23.360Z,28.10
2022-11-13T05:04:58.213Z,26.70
2022-11-13T05:07:32.713Z,26.60
2022-11-13T05:10:05.146Z,25.00
2022-11-13T05:12:37.619Z,26.30
2022-11-13T05:17:41.696Z,27.70
2022-11-13T05:20:14.844Z,26.70
2022-11-13T05:22:47.015Z,26.60
2022-11-13T05:25:19.347Z,28.00
2022-11-13T05:27:51.479Z,27.30
2022-11-13T05:30:23.728Z,28.00
2022-11-13T05:32:55.883Z,27.40
2022-11-13T05:35:28.131Z,29.00
2022-11-13T05:38:03.176Z,26.80
2022-11-13T05:40:35.283Z,27.10
2022-11-13T05:43:07.404Z,26.00
2022-11-13T05:45:39.586Z,26.00
2022-11-13T05:48:11.785Z,25.40
2022-11-13T05:50:44.019Z,27.10
2022-11-13T05:53:16.595Z,25.70
2022-11-13T05:55:48.765Z,26.00
2022-11-13T05:58:20.985Z,26.20
2022-11-13T06:00:53.155Z,25.50
2022-11-13T06:03:25.281Z,27.50
2022-11-13T06:05:57.450Z,28.90
2022-11-13T06:08:29.976Z,22.60
2022-11-13T06:13:36.545Z,22.60
2022-11-13T06:16:10.333Z,25.60
2022-11-13T06:18:43.987Z,23.60
2022-11-13T06:21:18.280Z,23.10
2022-11-13T06:23:50.735Z,23.40
2022-11-13T06:26:24.935Z,22.70
2022-11-13T06:28:57.480Z,23.10
2022-11-13T06:31:30.995Z,24.10
2022-11-13T06:34:03.471Z,22.60
2022-11-13T06:36:37.692Z,20.70
2022-11-13T06:39:10.968Z,21.70
2022-11-13T06:41:43.194Z,22.80
2022-11-13T06:44:15.417Z,23.30
2022-11-13T06:46:47.664Z,22.90
2022-11-13T06:49:19.907Z,23.00
2022-11-13T06:51:52.139Z,21.70
2022-11-13T06:54:24.399Z,20.70
2022-11-13T06:56:56.651Z,20.10
2022-11-13T06:59:28.961Z,21.10
2022-11-13T07:02:01.275Z,22.70
2022-11-13T07:04:33.675Z,19.10
2022-11-13T07:07:06.189Z,19.80
2022-11-13T07:09:38.624Z,20.60
2022-11-13T07:12:10.998Z,23.50
2022-11-13T07:14:43.371Z,21.20
2022-11-13T07:17:15.536Z,22.00
2022-11-13T07:19:48.512Z,25.00
2022-11-13T07:22:20.710Z,24.10
2022-11-13T07:24:53.272Z,26.00
2022-11-13T07:27:25.521Z,26.40
2022-11-13T07:30:02.299Z,26.90
2022-11-13T07:32:36.211Z,27.40
2022-11-13T07:35:10.513Z,28.80
2022-11-13T07:37:42.723Z,28.80
2022-11-13T07:40:15.461Z,28.60
2022-11-13T07:42:47.629Z,30.10
2022-11-13T07:45:20.248Z,28.20
2022-11-13T07:50:23.045Z,27.50
2022-11-13T07:52:59.525Z,28.50
2022-11-13T07:55:32.138Z,26.80
2022-11-13T08:00:37.526Z,24.90
2022-11-13T08:03:10.758Z,25.90
2022-11-13T08:05:43.340Z,26.60
2022-11-13T08:10:46.852Z,23.70
2022-11-13T08:13:19.531Z,25.00
2022-11-13T08:18:22.346Z,23.20
2022-11-13T08:20:55.022Z,23.50
2022-11-13T08:25:57.690Z,23.00
2022-11-13T08:28:30.271Z,20.60
2022-11-13T08:31:02.961Z,21.60
2022-11-13T08:33:35.272Z,23.10
2022-11-13T08:36:08.365Z,22.10
2022-11-13T08:38:40.671Z,21.90
2022-11-13T08:41:13.129Z,20.70
2022-11-13T08:43:45.342Z,20.90
2022-11-13T08:46:18.889Z,18.90
2022-11-13T08:48:51.518Z,17.90
2022-11-13T08:53:54.239Z,18.60
2022-11-13T08:56:26.889Z,18.60
2022-11-13T09:01:30.021Z,18.50
2022-11-13T09:06:32.885Z,17.90
2022-11-13T09:11:38.256Z,17.70
2022-11-13T09:14:12.358Z,16.80
2022-11-13T09:16:46.484Z,15.70
2022-11-13T09:19:20.883Z,17.60
2022-11-13T09:21:54.134Z,18.00
2022-11-13T09:24:27.541Z,18.10
2022-11-13T09:27:00.878Z,17.20
2022-11-13T09:29:34.436Z,18.90
2022-11-13T09:32:08.243Z,16.50
2022-11-13T09:34:42.680Z,15.90
2022-11-13T09:37:18.291Z,16.20
2022-11-13T09:39:52.594Z,15.70
2022-11-13T09:46:41.275Z,16.50
2022-11-13T09:51:54.831Z,15.90
2022-11-13T09:54:28.268Z,16.00
2022-11-13T09:57:07.613Z,15.80
2022-11-13T09:59:45.721Z,16.40
2022-11-13T10:02:25.426Z,16.30
2022-11-13T10:05:05.039Z,14.90
2022-11-13T10:14:51.604Z,15.30
2022-11-13T10:17:28.510Z,15.30
2022-11-13T10:20:02.786Z,14.40
2022-11-13T10:22:38.654Z,14.90
2022-11-13T10:25:17.125Z,13.50
2022-11-13T10:27:52.363Z,15.30
2022-11-13T10:30:24.821Z,13.30
2022-11-13T10:35:38.371Z,12.80
2022-11-13T10:38:17.748Z,13.10
2022-11-13T10:40:49.917Z,12.30
2022-11-13T10:43:23.590Z,12.50
2022-11-13T10:46:00.449Z,11.70
2022-11-13T10:48:34.647Z,12.90
2022-11-13T10:51:22.493Z,13.50
2022-11-13T10:53:55.341Z,14.80
2022-11-13T10:56:31.222Z,13.80
2022-11-13T10:59:10.519Z,12.80
2022-11-13T11:01:43.813Z,13.60
2022-11-13T11:04:24.161Z,12.50
2022-11-13T11:07:19.168Z,12.00
2022-11-13T11:09:50.452Z,12.60
2022-11-13T11:12:30.742Z,12.10
2022-11-13T11:15:11.519Z,11.50
2022-11-13T11:17:48.060Z,10.20
2022-11-13T11:20:30.611Z,10.00
2022-11-13T11:23:06.426Z,10.40
2022-11-13T11:25:42.278Z,11.10
2022-11-13T11:28:18.038Z,11.20
2022-11-13T11:30:57.292Z,12.50
2022-11-13T11:33:34.347Z,12.00
2022-11-13T11:36:15.070Z,11.10
2022-11-13T11:38:52.482Z,9.80
2022-11-13T11:41:30.856Z,11.50
2022-11-13T11:44:10.478Z,11.00
2022-11-13T11:46:46.727Z,11.40
2022-11-13T11:49:19.300Z,10.30
2022-11-13T11:51:58.241Z,10.10
2022-11-13T11:54:41.641Z,10.20
2022-11-13T11:57:24.807Z,9.80
2022-11-13T12:00:07.529Z,10.60
2022-11-13T12:02:52.921Z,10.40
2022-11-13T12:05:30.997Z,9.50
2022-11-13T12:08:12.490Z,9.50
2022-11-13T12:10:51.798Z,11.10
2022-11-13T12:13:30.480Z,11.40
2022-11-13T12:16:10.904Z,10.20
2022-11-13T12:18:53.725Z,9.60
2022-11-13T12:21:29.494Z,8.70
2022-11-13T12:24:11.541Z,10.50
2022-11-13T12:26:50.944Z,9.50
2022-11-13T12:29:38.791Z,9.30
2022-11-13T12:32:24.713Z,10.60
2022-11-13T12:35:11.347Z,9.80
2022-11-13T12:37:51.535Z,10.80
2022-11-13T12:40:29.715Z,11.40
2022-11-13T12:43:26.794Z,10.20
2022-11-13T12:46:02.011Z,10.30
2022-11-13T12:48:38.579Z,8.80
2022-11-13T12:51:12.308Z,8.20
2022-11-13T12:53:50.475Z,8.40
2022-11-13T12:56:35.025Z,9.90
2022-11-13T12:59:31.279Z,10.10
2022-11-13T13:02:20.922Z,9.30
2022-11-13T13:05:15.015Z,9.20
2022-11-13T13:08:12.843Z,8.50
2022-11-13T13:11:03.599Z,8.90
2022-11-13T13:13:50.272Z,8.90
2022-11-13T13:16:29.942Z,8.60
2022-11-13T13:19:28.913Z,8.40
2022-11-13T13:22:05.334Z,8.30
2022-11-13T13:24:42.609Z,10.90
2022-11-13T13:27:27.757Z,10.00
2022-11-13T13:30:00.545Z,10.90
2022-11-13T13:32:37.861Z,11.10
2022-11-13T13:35:13.793Z,10.60
2022-11-13T13:37:50.599Z,10.70
2022-11-13T13:40:35.280Z,12.00
2022-11-13T13:43:33.797Z,12.20
2022-11-13T13:46:12.723Z,12.20
2022-11-13T13:48:46.470Z,12.90
2022-11-13T13:51:31.916Z,12.40
2022-11-13T13:54:07.219Z,12.90
2022-11-13T13:56:44.504Z,12.70
2022-11-13T13:59:21.395Z,12.30
2022-11-13T14:02:00.102Z,11.90
2022-11-13T14:04:48.632Z,12.30
2022-11-13T14:12:46.585Z,12.70
2022-11-13T14:15:26.613Z,13.40
2022-11-13T14:18:10.411Z,13.30
2022-11-13T14:20:47.108Z,11.90
2022-11-13T14:23:22.744Z,12.80
2022-11-13T14:25:55.427Z,13.60
2022-11-13T14:28:29.719Z,14.60
2022-11-13T14:31:04.165Z,14.20
2022-11-13T14:33:42.157Z,14.00
2022-11-13T14:36:15.151Z,14.40
2022-11-13T14:38:52.100Z,14.40
2022-11-13T14:41:27.986Z,15.60
2022-11-13T14:44:00.826Z,13.70
2022-11-13T14:46:35.487Z,13.80
2022-11-13T14:49:15.792Z,16.90
2022-11-13T14:51:57.752Z,15.40
2022-11-13T14:55:08.024Z,15.30
2022-11-13T14:57:31.655Z,15.80
2022-11-13T15:00:14.863Z,15.60
2022-11-13T15:02:47.122Z,14.20
2022-11-13T15:05:19.529Z,16.40
2022-11-13T15:07:52.602Z,14.70
2022-11-13T15:10:29.346Z,15.80
2022-11-13T15:13:06.376Z,15.80
2022-11-13T15:15:38.745Z,16.20
2022-11-13T15:18:13.939Z,15.60
2022-11-13T15:20:46.324Z,18.70
2022-11-13T15:23:19.296Z,18.80
2022-11-13T15:25:51.455Z,19.70
2022-11-13T15:28:23.676Z,20.20
2022-11-13T15:30:56.750Z,19.70
2022-11-13T15:33:29.377Z,20.10
2022-11-13T15:36:01.770Z,21.20
2022-11-13T15:38:33.971Z,22.00
2022-11-13T15:41:12.174Z,22.80
2022-11-13T15:43:46.784Z,24.60
2022-11-13T15:46:21.753Z,26.60
2022-11-13T15:48:54.391Z,27.10
2022-11-13T15:51:29.562Z,27.60
2022-11-13T15:54:03.583Z,29.60
2022-11-13T15:56:35.792Z,29.80
2022-11-13T15:59:08.027Z,28.70
2022-11-13T16:01:40.626Z,30.30
2022-11-13T16:04:14.969Z,29.70
2022-11-13T16:06:47.337Z,29.60
2022-11-13T16:09:19.612Z,28.70
2022-11-13T16:11:51.856Z,30.10
2022-11-13T16:14:25.177Z,31.90
2022-11-13T16:16:57.745Z,30.10
2022-11-13T16:19:30.462Z,32.10
2022-11-13T16:22:05.698Z,33.60
2022-11-13T16:24:37.962Z,32.40
2022-11-13T16:27:12.649Z,32.40
2022-11-13T16:29:45.462Z,31.80
2022-11-13T16:32:18.863Z,35.30
2022-11-13T16:34:53.826Z,34.10
2022-11-13T16:37:27.187Z,35.70
2022-11-13T16:39:59.390Z,34.60
2022-11-13T16:42:31.813Z,34.00
2022-11-13T16:45:04.254Z,33.50
2022-11-13T16:47:36.705Z,31.80
2022-11-13T16:52:42.683Z,32.50
2022-11-13T16:55:14.987Z,34.50
2022-11-13T16:57:47.469Z,34.10
2022-11-13T17:00:21.557Z,32.90
2022-11-13T17:02:54.905Z,33.70
2022-11-13T17:05:27.289Z,33.60
2022-11-13T17:08:01.962Z,30.90
2022-11-13T17:10:34.694Z,31.40
2022-11-13T17:13:12.660Z,31.30
2022-11-13T17:15:46.613Z,33.50
2022-11-13T17:20:55.556Z,28.20
2022-11-13T17:23:28.874Z,30.20
2022-11-13T17:26:10.637Z,29.70
2022-11-13T17:28:43.278Z,28.50
2022-11-13T17:31:15.841Z,31.60
2022-11-13T17:33:48.535Z,34.30
2022-11-13T17:36:30.644Z,34.10
2022-11-13T17:39:10.983Z,33.70
2022-11-13T17:41:45.073Z,31.30
2022-11-13T17:44:26.869Z,31.70
2022-11-13T17:46:59.647Z,28.90
2022-11-13T17:52:08.033Z,28.40
2022-11-13T17:54:57.568Z,29.70
2022-11-13T17:57:36.457Z,28.90
2022-11-13T18:00:18.388Z,28.60
2022-11-13T18:02:50.995Z,30.20
2022-11-13T18:07:54.062Z,28.40
2022-11-13T18:10:36.475Z,28.60
2022-11-13T18:13:11.249Z,27.80
2022-11-13T18:15:44.285Z,27.30
2022-11-13T18:18:16.795Z,29.80
2022-11-13T18:20:49.783Z,30.00
2022-11-13T18:25:53.033Z,29.90
2022-11-13T18:28:25.377Z,29.30
2022-11-13T18:30:57.988Z,28.20
2022-11-13T18:33:30.840Z,29.90
2022-11-13T18:36:03.867Z,30.70
2022-11-13T18:38:36.445Z,28.40
2022-11-13T18:41:11.336Z,27.10
2022-11-13T18:43:45.515Z,29.00
2022-11-13T18:46:19.103Z,29.40
2022-11-13T18:48:52.136Z,30.90
2022-11-13T18:51:25.903Z,30.20
2022-11-13T18:53:58.664Z,28.40
2022-11-13T18:56:32.189Z,28.40
2022-11-13T18:59:04.447Z,28.90
2022-11-13T19:07:56.513Z,27.30
2022-11-13T19:10:30.745Z,27.90
2022-11-13T19:13:03.508Z,27.20
2022-11-13T19:15:39.421Z,28.20
2022-11-13T19:18:12.086Z,29.40
2022-11-13T19:23:18.533Z,27.00
2022-11-13T19:28:10.590Z,28.30
2022-11-13T19:30:48.486Z,25.70
2022-11-13T19:33:22.358Z,25.00
2022-11-13T19:38:28.848Z,28.70
2022-11-13T19:41:02.047Z,28.10
2022-11-13T19:43:36.110Z,28.10
2022-11-13T19:46:09.739Z,27.80
2022-11-13T19:48:43.953Z,28.30
2022-11-13T19:51:18.352Z,26.90
2022-11-13T19:53:53.395Z,26.50
2022-11-13T19:56:28.482Z,27.90
2022-11-13T19:59:02.280Z,26.50
2022-11-13T20:01:38.060Z,27.30
2022-11-13T20:04:16.142Z,28.10
2022-11-13T20:06:50.984Z,27.80
2022-11-13T20:09:23.498Z,30.50
2022-11-13T20:11:56.064Z,28.80
2022-11-13T20:16:59.354Z,28.40
2022-11-13T20:19:31.894Z,28.70
2022-11-13T20:24:34.857Z,26.30
2022-11-13T20:27:07.211Z,28.00
2022-11-13T20:29:39.651Z,29.60
2022-11-13T20:32:12.705Z,29.10
2022-11-13T20:34:45.357Z,28.10
2022-11-13T20:37:17.771Z,27.30
2022-11-13T20:39:50.116Z,30.00
2022-11-13T20:42:22.494Z,28.00
2022-11-13T20:44:59.871Z,25.60
2022-11-13T20:53:49.048Z,28.70
2022-11-13T20:58:52.552Z,32.30
2022-11-13T21:01:26.664Z,34.70
2022-11-13T21:03:59.690Z,31.50
2022-11-13T21:06:32.189Z,31.00
2022-11-13T21:09:05.843Z,34.20
2022-11-13T21:11:38.432Z,35.90
2022-11-13T21:14:12.311Z,34.70
2022-11-13T21:16:44.862Z,34.80
2022-11-13T21:19:17.463Z,34.00
2022-11-13T21:24:22.489Z,33.00
2022-11-13T21:26:55.747Z,33.00
2022-11-13T21:29:28.027Z,31.80
2022-11-13T21:32:00.601Z,30.20
2022-11-13T21:37:03.905Z,31.10
2022-11-13T21:39:36.267Z,33.60
2022-11-13T21:42:08.754Z,34.50
2022-11-13T21:47:12.887Z,32.40
2022-11-13T21:49:45.653Z,31.60
2022-11-13T21:52:18.123Z,33.50
2022-11-13T21:57:24.345Z,30.10
2022-11-13T21:59:56.757Z,32.30
2022-11-13T22:05:00.189Z,32.90
2022-11-13T22:07:32.760Z,34.20
2022-11-13T22:12:42.058Z,31.70
2022-11-13T22:15:15.220Z,33.40
2022-11-13T22:17:47.759Z,32.40
2022-11-13T22:22:51.261Z,32.40
2022-11-13T22:27:54.432Z,32.80
2022-11-13T22:30:26.769Z,33.70
2022-11-13T22:32:59.247Z,34.50
2022-11-13T22:35:32.781Z,34.90
2022-11-13T22:38:06.351Z,34.90
2022-11-13T22:40:38.662Z,35.70
2022-11-13T22:43:11.016Z,34.70
2022-11-13T22:45:43.248Z,35.00
2022-11-13T22:48:15.550Z,32.90
2022-11-13T22:50:47.789Z,31.60
2022-11-13T22:53:20.139Z,35.80
2022-11-13T22:55:52.537Z,36.10
2022-11-13T22:58:24.962Z,35.20
2022-11-13T23:00:57.221Z,33.50
2022-11-13T23:03:29.670Z,35.00
2022-11-13T23:06:04.028Z,35.10
2022-11-13T23:08:38.968Z,34.20
2022-11-13T23:11:14.846Z,31.20
2022-11-13T23:13:48.959Z,32.80
2022-11-13T23:16:22.759Z,33.10
2022-11-13T23:18:57.252Z,33.40
2022-11-13T23:21:30.396Z,33.60
2022-11-13T23:24:02.715Z,32.70
2022-11-13T23:26:35.043Z,29.80
2022-11-13T23:29:07.431Z,30.90
2022-11-13T23:31:39.692Z,31.20
2022-11-13T23:34:12.032Z,30.10
2022-11-13T23:36:44.316Z,30.50
2022-11-13T23:39:18.581Z,30.80
2022-11-13T23:41:51.139Z,31.10
2022-11-13T23:44:25.768Z,31.40
2022-11-13T23:46:58.041Z,29.60
2022-11-13T23:49:30.205Z,31.10
2022-11-13T23:52:05.823Z,29.80
2022-11-13T23:54:38.862Z,28.00
2022-11-13T23:57:17.848Z,27.60
2022-11-13T23:59:50.354Z,28.90
